Time,TemperatureF,DewpointF,PressureIn,WindDirection,WindDirectionDegrees,WindSpeedMPH,WindSpeedGustMPH,Humidity,HourlyPrecipIn,Conditions,Clouds,dailyrainin,SoftwareType,DateUTC
2013-09-02 00:00:00,57.9,54.7,30.41,WNW,300,5.0,7.0,89,0.00,,,0.00,Wunderground v.1.15,2013-09-01 23:00:00,
2013-09-02 00:10:00,58.0,54.8,30.41,WNW,299,4.0,4.0,89,0.00,,,0.00,Wunderground v.1.15,2013-09-01 23:10:00,
2013-09-02 00:15:00,58.0,54.5,30.41,WNW,299,4.0,4.0,88,0.00,,,0.00,Wunderground v.1.15,2013-09-01 23:15:00,
2013-09-02 00:25:00,58.0,54.8,30.41,NW,308,4.0,4.0,89,0.00,,,0.00,Wunderground v.1.15,2013-09-01 23:25:00,
2013-09-02 00:30:00,58.0,54.8,30.41,NW,304,4.0,5.0,89,0.00,,,0.00,Wunderground v.1.15,2013-09-01 23:30:00,
2013-09-02 00:40:00,57.9,54.4,30.40,WNW,300,4.0,4.0,88,0.00,,,0.00,Wunderground v.1.15,2013-09-01 23:40:00,
2013-09-02 00:45:00,57.9,54.7,30.41,West,270,4.0,4.0,89,0.00,,,0.00,Wunderground v.1.15,2013-09-01 23:45:00,
2013-09-02 00:55:00,57.9,54.7,30.41,NW,305,4.0,6.0,89,0.00,,,0.00,Wunderground v.1.15,2013-09-01 23:55:00,
2013-09-02 01:05:00,57.8,54.6,30.40,West,281,5.0,6.0,89,0.00,,,0.00,Wunderground v.1.15,2013-09-02 00:05:00,
2013-09-02 01:10:00,57.9,54.7,30.40,NW,308,4.0,4.0,89,0.00,,,0.00,Wunderground v.1.15,2013-09-02 00:10:00,
2013-09-02 01:20:00,58.0,54.8,30.40,West,281,5.0,5.0,89,0.00,,,0.00,Wunderground v.1.15,2013-09-02 00:20:00,
2013-09-02 01:30:00,58.0,54.5,30.40,NW,314,6.0,6.0,88,0.00,,,0.00,Wunderground v.1.15,2013-09-02 00:30:00,
2013-09-02 01:35:00,58.0,54.5,30.40,NW,306,6.0,6.0,88,0.00,,,0.00,Wunderground v.1.15,2013-09-02 00:35:00,
2013-09-02 01:40:00,58.0,54.5,30.40,WNW,298,4.0,5.0,88,0.00,,,0.00,Wunderground v.1.15,2013-09-02 00:40:00,
2013-09-02 01:45:00,58.0,54.5,30.40,WNW,296,4.0,10.0,88,0.00,,,0.00,Wunderground v.1.15,2013-09-02 00:45:00,
2013-09-02 01:50:00,58.0,54.5,30.40,NW,304,4.0,4.0,88,0.00,,,0.00,Wunderground v.1.15,2013-09-02 00:50:00,
2013-09-02 02:00:00,58.0,54.5,30.40,NW,310,5.0,6.0,88,0.00,,,0.00,Wunderground v.1.15,2013-09-02 01:00:00,
2013-09-02 02:10:00,58.1,54.6,30.40,WNW,297,4.0,7.0,88,0.00,,,0.00,Wunderground v.1.15,2013-09-02 01:10:00,
2013-09-02 02:20:00,58.0,54.5,30.39,WNW,303,4.0,4.0,88,0.00,,,0.00,Wunderground v.1.15,2013-09-02 01:20:00,
2013-09-02 02:30:00,58.1,54.6,30.38,NW,307,5.0,6.0,88,0.00,,,0.00,Wunderground v.1.15,2013-09-02 01:30:00,
2013-09-02 02:40:00,58.1,54.6,30.38,NW,306,4.0,11.0,88,0.00,,,0.00,Wunderground v.1.15,2013-09-02 01:40:00,
2013-09-02 02:50:00,58.0,54.5,30.38,WNW,296,5.0,5.0,88,0.00,,,0.00,Wunderground v.1.15,2013-09-02 01:50:00,
2013-09-02 03:00:00,58.1,54.6,30.38,NW,316,4.0,9.0,88,0.00,,,0.00,Wunderground v.1.15,2013-09-02 02:00:00,
2013-09-02 03:10:00,58.1,54.6,30.37,NW,306,5.0,5.0,88,0.00,,,0.00,Wunderground v.1.15,2013-09-02 02:10:00,
2013-09-02 03:20:00,58.1,54.6,30.37,WNW,300,4.0,7.0,88,0.00,,,0.00,Wunderground v.1.15,2013-09-02 02:20:00,
2013-09-02 03:30:00,58.2,55.0,30.37,NW,316,5.0,7.0,89,0.00,,,0.00,Wunderground v.1.15,2013-09-02 02:30:00,
2013-09-02 03:40:00,58.2,55.0,30.37,WNW,297,6.0,6.0,89,0.00,,,0.00,Wunderground v.1.15,2013-09-02 02:40:00,
2013-09-02 03:50:00,58.2,54.7,30.37,North,355,5.0,10.0,88,0.00,,,0.00,Wunderground v.1.15,2013-09-02 02:50:00,
2013-09-02 04:00:00,58.1,54.6,30.37,WNW,296,6.0,9.0,88,0.00,,,0.00,Wunderground v.1.15,2013-09-02 03:00:00,
2013-09-02 04:05:00,58.2,55.0,30.37,WNW,302,4.0,9.0,89,0.00,,,0.00,Wunderground v.1.15,2013-09-02 03:05:00,
2013-09-02 04:15:00,58.2,55.0,30.36,NW,304,7.0,7.0,89,0.00,,,0.00,Wunderground v.1.15,2013-09-02 03:15:00,
2013-09-02 04:25:00,58.3,55.1,30.37,WNW,300,7.0,11.0,89,0.00,,,0.00,Wunderground v.1.15,2013-09-02 03:25:00,
2013-09-02 04:35:00,58.4,55.2,30.36,WNW,294,6.0,6.0,89,0.00,,,0.00,Wunderground v.1.15,2013-09-02 03:35:00,
2013-09-02 04:45:00,58.2,54.7,30.36,WNW,300,5.0,10.0,88,0.00,,,0.00,Wunderground v.1.15,2013-09-02 03:45:00,
2013-09-02 04:50:00,58.2,55.0,30.36,NW,321,6.0,6.0,89,0.00,,,0.00,Wunderground v.1.15,2013-09-02 03:50:00,
2013-09-02 05:00:00,58.3,55.1,30.36,NNW,335,7.0,7.0,89,0.00,,,0.00,Wunderground v.1.15,2013-09-02 04:00:00,
2013-09-02 05:05:00,58.3,55.1,30.36,NW,311,7.0,7.0,89,0.00,,,0.00,Wunderground v.1.15,2013-09-02 04:05:00,
2013-09-02 05:15:00,58.2,54.7,30.36,NW,309,6.0,14.0,88,0.00,,,0.00,Wunderground v.1.15,2013-09-02 04:15:00,
2013-09-02 05:20:00,58.2,54.7,30.36,WNW,299,7.0,7.0,88,0.00,,,0.00,Wunderground v.1.15,2013-09-02 04:20:00,
2013-09-02 05:30:00,58.2,54.7,30.36,West,278,4.0,4.0,88,0.00,,,0.00,Wunderground v.1.15,2013-09-02 04:30:00,
2013-09-02 05:35:00,58.2,54.7,30.36,NW,309,4.0,7.0,88,0.00,,,0.00,Wunderground v.1.15,2013-09-02 04:35:00,
2013-09-02 05:45:00,58.2,54.7,30.36,NW,309,5.0,5.0,88,0.00,,,0.00,Wunderground v.1.15,2013-09-02 04:45:00,
2013-09-02 05:50:00,58.2,54.7,30.36,WNW,302,5.0,5.0,88,0.00,,,0.00,Wunderground v.1.15,2013-09-02 04:50:00,
2013-09-02 05:55:00,58.1,54.6,30.36,NW,305,6.0,6.0,88,0.00,,,0.00,Wunderground v.1.15,2013-09-02 04:55:00,
2013-09-02 06:05:00,58.2,54.7,30.36,WNW,292,7.0,7.0,88,0.00,,,0.00,Wunderground v.1.15,2013-09-02 05:05:00,
2013-09-02 06:10:00,58.1,54.6,30.36,WNW,302,7.0,9.0,88,0.00,,,0.00,Wunderground v.1.15,2013-09-02 05:10:00,
2013-09-02 06:20:00,58.2,54.7,30.36,WNW,301,6.0,6.0,88,0.00,,,0.00,Wunderground v.1.15,2013-09-02 05:20:00,
2013-09-02 06:25:00,58.1,54.6,30.36,NW,307,7.0,7.0,88,0.00,,,0.00,Wunderground v.1.15,2013-09-02 05:25:00,
2013-09-02 06:30:00,58.1,54.6,30.36,NW,325,7.0,7.0,88,0.00,,,0.00,Wunderground v.1.15,2013-09-02 05:30:00,
2013-09-02 06:35:00,58.1,54.6,30.36,NW,308,7.0,7.0,88,0.00,,,0.00,Wunderground v.1.15,2013-09-02 05:35:00,
2013-09-02 06:45:00,58.1,54.6,30.36,West,275,6.0,7.0,88,0.00,,,0.00,Wunderground v.1.15,2013-09-02 05:45:00,
2013-09-02 06:55:00,58.0,54.5,30.36,NW,324,7.0,7.0,88,0.00,,,0.00,Wunderground v.1.15,2013-09-02 05:55:00,
2013-09-02 07:00:00,58.0,54.5,30.37,WNW,295,6.0,6.0,88,0.00,,,0.00,Wunderground v.1.15,2013-09-02 06:00:00,
2013-09-02 07:10:00,58.1,54.6,30.37,NW,309,7.0,7.0,88,0.00,,,0.00,Wunderground v.1.15,2013-09-02 06:10:00,
2013-09-02 07:15:00,58.2,54.7,30.37,WNW,303,7.0,7.0,88,0.00,,,0.00,Wunderground v.1.15,2013-09-02 06:15:00,
2013-09-02 07:25:00,58.1,54.2,30.37,NW,304,5.0,7.0,87,0.00,,,0.00,Wunderground v.1.15,2013-09-02 06:25:00,
2013-09-02 07:30:00,58.1,54.2,30.37,NW,311,4.0,5.0,87,0.00,,,0.00,Wunderground v.1.15,2013-09-02 06:30:00,
2013-09-02 07:40:00,58.3,54.4,30.37,WNW,293,6.0,6.0,87,0.00,,,0.00,Wunderground v.1.15,2013-09-02 06:40:00,
2013-09-02 07:50:00,58.2,54.3,30.38,WNW,300,5.0,5.0,87,0.00,,,0.00,Wunderground v.1.15,2013-09-02 06:50:00,
2013-09-02 08:00:00,58.3,54.4,30.38,NW,309,6.0,6.0,87,0.00,,,0.00,Wunderground v.1.15,2013-09-02 07:00:00,
2013-09-02 08:10:00,58.5,55.0,30.39,NW,304,5.0,5.0,88,0.00,,,0.00,Wunderground v.1.15,2013-09-02 07:10:00,
2013-09-02 08:20:00,58.4,54.5,30.39,NW,304,6.0,6.0,87,0.00,,,0.00,Wunderground v.1.15,2013-09-02 07:20:00,
2013-09-02 08:25:00,58.4,54.5,30.38,NW,310,5.0,7.0,87,0.00,,,0.00,Wunderground v.1.15,2013-09-02 07:25:00,
2013-09-02 08:30:00,58.6,55.1,30.39,NW,306,5.0,6.0,88,0.00,,,0.00,Wunderground v.1.15,2013-09-02 07:30:00,
2013-09-02 08:40:00,58.7,54.8,30.39,WNW,300,6.0,6.0,87,0.00,,,0.00,Wunderground v.1.15,2013-09-02 07:40:00,
2013-09-02 08:45:00,58.8,54.9,30.38,NW,309,5.0,6.0,87,0.00,,,0.00,Wunderground v.1.15,2013-09-02 07:45:00,
2013-09-02 08:55:00,59.0,55.4,30.39,WNW,292,4.0,4.0,88,0.00,,,0.00,Wunderground v.1.15,2013-09-02 07:55:00,
2013-09-02 09:05:00,59.0,55.1,30.39,NW,306,5.0,6.0,87,0.00,,,0.00,Wunderground v.1.15,2013-09-02 08:05:00,
2013-09-02 09:15:00,59.3,55.4,30.39,WNW,297,6.0,6.0,87,0.00,,,0.00,Wunderground v.1.15,2013-09-02 08:15:00,
2013-09-02 09:25:00,59.5,55.6,30.39,NW,304,5.0,5.0,87,0.00,,,0.00,Wunderground v.1.15,2013-09-02 08:25:00,
2013-09-02 09:35:00,59.5,55.3,30.40,NW,304,5.0,6.0,86,0.00,,,0.00,Wunderground v.1.15,2013-09-02 08:35:00,
2013-09-02 09:45:00,59.6,55.7,30.40,WNW,302,5.0,6.0,87,0.00,,,0.00,Wunderground v.1.15,2013-09-02 08:45:00,
2013-09-02 09:50:00,59.6,55.7,30.40,WNW,287,5.0,5.0,87,0.00,,,0.00,Wunderground v.1.15,2013-09-02 08:50:00,
2013-09-02 10:00:00,59.8,55.9,30.40,NW,315,4.0,4.0,87,0.00,,,0.00,Wunderground v.1.15,2013-09-02 09:00:00,
2013-09-02 10:10:00,60.0,56.1,30.40,NW,307,4.0,5.0,87,0.00,,,0.00,Wunderground v.1.15,2013-09-02 09:10:00,
2013-09-02 10:20:00,60.0,56.1,30.40,NW,311,6.0,6.0,87,0.00,,,0.00,Wunderground v.1.15,2013-09-02 09:20:00,
2013-09-02 10:25:00,60.1,56.5,30.40,WNW,302,5.0,6.0,88,0.00,,,0.00,Wunderground v.1.15,2013-09-02 09:25:00,
2013-09-02 10:35:00,60.3,56.4,30.40,NW,307,6.0,9.0,87,0.00,,,0.00,Wunderground v.1.15,2013-09-02 09:35:00,
2013-09-02 10:45:00,60.2,56.0,30.40,NW,323,5.0,7.0,86,0.00,,,0.00,Wunderground v.1.15,2013-09-02 09:45:00,
2013-09-02 10:55:00,60.5,56.6,30.39,WNW,300,5.0,6.0,87,0.00,,,0.00,Wunderground v.1.15,2013-09-02 09:55:00,
2013-09-02 11:05:00,60.8,56.3,30.40,NNW,327,5.0,5.0,85,0.00,,,0.00,Wunderground v.1.15,2013-09-02 10:05:00,
2013-09-02 11:15:00,61.1,56.9,30.40,NW,305,3.0,7.0,86,0.00,,,0.00,Wunderground v.1.15,2013-09-02 10:15:00,
2013-09-02 11:25:00,61.1,57.2,30.40,NW,310,4.0,7.0,87,0.00,,,0.00,Wunderground v.1.15,2013-09-02 10:25:00,
2013-09-02 11:35:00,61.2,57.3,30.40,NW,315,5.0,5.0,87,0.00,,,0.00,Wunderground v.1.15,2013-09-02 10:35:00,
2013-09-02 11:45:00,61.3,57.4,30.40,NW,304,5.0,5.0,87,0.00,,,0.00,Wunderground v.1.15,2013-09-02 10:45:00,
2013-09-02 11:55:00,61.8,57.6,30.40,NW,304,3.0,3.0,86,0.00,,,0.00,Wunderground v.1.15,2013-09-02 10:55:00,
2013-09-02 12:00:00,61.9,57.7,30.40,WNW,302,3.0,3.0,86,0.00,,,0.00,Wunderground v.1.15,2013-09-02 11:00:00,
2013-09-02 12:10:00,62.2,57.6,30.39,NW,307,3.0,3.0,85,0.00,,,0.00,Wunderground v.1.15,2013-09-02 11:10:00,
2013-09-02 12:20:00,62.7,58.5,30.40,WNW,298,2.0,2.0,86,0.00,,,0.00,Wunderground v.1.15,2013-09-02 11:20:00,
2013-09-02 12:30:00,63.5,58.9,30.39,WNW,303,3.0,3.0,85,0.00,,,0.00,Wunderground v.1.15,2013-09-02 11:30:00,
2013-09-02 12:40:00,63.5,58.9,30.39,WNW,302,3.0,5.0,85,0.00,,,0.00,Wunderground v.1.15,2013-09-02 11:40:00,
2013-09-02 12:50:00,63.4,58.1,30.39,WNW,302,5.0,5.0,83,0.00,,,0.00,Wunderground v.1.15,2013-09-02 11:50:00,
2013-09-02 13:00:00,63.2,58.3,30.39,NW,314,5.0,5.0,84,0.00,,,0.00,Wunderground v.1.15,2013-09-02 12:00:00,
2013-09-02 13:10:00,62.8,57.9,30.39,WNW,301,5.0,5.0,84,0.00,,,0.00,Wunderground v.1.15,2013-09-02 12:10:00,
2013-09-02 13:20:00,62.7,57.5,30.39,NW,323,6.0,6.0,83,0.00,,,0.00,Wunderground v.1.15,2013-09-02 12:20:00,
2013-09-02 13:25:00,62.6,57.7,30.39,NW,305,7.0,7.0,84,0.00,,,0.00,Wunderground v.1.15,2013-09-02 12:25:00,
2013-09-02 13:35:00,63.0,58.4,30.39,NW,315,3.0,5.0,85,0.00,,,0.00,Wunderground v.1.15,2013-09-02 12:35:00,
2013-09-02 13:40:00,63.2,58.3,30.39,NW,311,2.0,2.0,84,0.00,,,0.00,Wunderground v.1.15,2013-09-02 12:40:00,
2013-09-02 13:50:00,63.6,58.7,30.39,WNW,296,2.0,3.0,84,0.00,,,0.00,Wunderground v.1.15,2013-09-02 12:50:00,
2013-09-02 13:55:00,63.5,58.2,30.39,WNW,298,3.0,3.0,83,0.00,,,0.00,Wunderground v.1.15,2013-09-02 12:55:00,
2013-09-02 14:00:00,63.6,58.3,30.39,NW,307,3.0,5.0,83,0.00,,,0.00,Wunderground v.1.15,2013-09-02 13:00:00,
2013-09-02 14:10:00,63.2,57.9,30.39,WNW,300,5.0,5.0,83,0.00,,,0.00,Wunderground v.1.15,2013-09-02 13:10:00,
2013-09-02 14:20:00,62.9,58.0,30.39,WNW,302,5.0,7.0,84,0.00,,,0.00,Wunderground v.1.15,2013-09-02 13:20:00,
2013-09-02 14:30:00,62.6,57.7,30.39,NW,308,6.0,6.0,84,0.00,,,0.00,Wunderground v.1.15,2013-09-02 13:30:00,
2013-09-02 14:40:00,62.6,57.7,30.39,NW,304,5.0,7.0,84,0.00,,,0.00,Wunderground v.1.15,2013-09-02 13:40:00,
2013-09-02 14:50:00,62.7,58.1,30.39,NW,307,4.0,4.0,85,0.00,,,0.00,Wunderground v.1.15,2013-09-02 13:50:00,
2013-09-02 14:55:00,62.8,58.2,30.38,NW,307,3.0,4.0,85,0.00,,,0.00,Wunderground v.1.15,2013-09-02 13:55:00,
2013-09-02 15:05:00,63.1,58.2,30.38,NW,308,2.0,6.0,84,0.00,,,0.00,Wunderground v.1.15,2013-09-02 14:05:00,
2013-09-02 15:15:00,63.2,58.6,30.38,NW,323,3.0,3.0,85,0.00,,,0.00,Wunderground v.1.15,2013-09-02 14:15:00,
2013-09-02 15:25:00,63.3,58.4,30.38,NW,312,2.0,7.0,84,0.00,,,0.00,Wunderground v.1.15,2013-09-02 14:25:00,
2013-09-02 15:30:00,63.2,58.6,30.39,NW,309,3.0,3.0,85,0.00,,,0.00,Wunderground v.1.15,2013-09-02 14:30:00,
2013-09-02 15:40:00,63.2,58.3,30.38,NW,316,2.0,2.0,84,0.00,,,0.00,Wunderground v.1.15,2013-09-02 14:40:00,
2013-09-02 15:50:00,63.2,58.3,30.38,WNW,303,2.0,2.0,84,0.00,,,0.00,Wunderground v.1.15,2013-09-02 14:50:00,
2013-09-02 16:00:00,63.4,58.5,30.38,WNW,294,2.0,2.0,84,0.00,,,0.00,Wunderground v.1.15,2013-09-02 15:00:00,
2013-09-02 16:10:00,63.2,58.3,30.37,WNW,294,1.0,1.0,84,0.00,,,0.00,Wunderground v.1.15,2013-09-02 15:10:00,
2013-09-02 16:20:00,63.5,58.9,30.37,WNW,297,1.0,4.0,85,0.00,,,0.00,Wunderground v.1.15,2013-09-02 15:20:00,
2013-09-02 16:35:00,63.8,58.9,30.37,NW,310,2.0,2.0,84,0.00,,,0.00,Wunderground v.1.15,2013-09-02 15:35:00,
2013-09-02 16:45:00,63.8,58.9,30.37,NW,311,1.0,2.0,84,0.00,,,0.00,Wunderground v.1.15,2013-09-02 15:45:00,
2013-09-02 16:55:00,64.0,59.1,30.37,NW,309,1.0,3.0,84,0.00,,,0.00,Wunderground v.1.15,2013-09-02 15:55:00,
2013-09-02 17:00:00,63.9,59.0,30.37,WNW,303,2.0,5.0,84,0.00,,,0.00,Wunderground v.1.15,2013-09-02 16:00:00,
2013-09-02 17:10:00,63.6,59.0,30.37,NW,306,3.0,4.0,85,0.00,,,0.00,Wunderground v.1.15,2013-09-02 16:10:00,
2013-09-02 17:15:00,63.4,58.8,30.37,NW,307,3.0,4.0,85,0.00,,,0.00,Wunderground v.1.15,2013-09-02 16:15:00,
2013-09-02 17:20:00,63.1,58.5,30.37,WNW,300,4.0,5.0,85,0.00,,,0.00,Wunderground v.1.15,2013-09-02 16:20:00,
2013-09-02 17:25:00,62.9,58.6,30.37,WNW,302,4.0,5.0,86,0.00,,,0.00,Wunderground v.1.15,2013-09-02 16:25:00,
2013-09-02 17:35:00,62.7,58.8,30.37,WNW,303,3.0,5.0,87,0.00,,,0.00,Wunderground v.1.15,2013-09-02 16:35:00,
2013-09-02 17:45:00,62.7,58.8,30.37,NW,304,2.0,5.0,87,0.00,,,0.00,Wunderground v.1.15,2013-09-02 16:45:00,
2013-09-02 17:55:00,62.6,58.7,30.37,NW,304,1.0,3.0,87,0.00,,,0.00,Wunderground v.1.15,2013-09-02 16:55:00,
2013-09-02 18:05:00,62.4,58.5,30.37,NW,305,2.0,2.0,87,0.00,,,0.00,Wunderground v.1.15,2013-09-02 17:05:00,
2013-09-02 18:15:00,62.5,58.6,30.36,NW,316,2.0,2.0,87,0.00,,,0.00,Wunderground v.1.15,2013-09-02 17:15:00,
2013-09-02 18:25:00,62.4,58.5,30.37,NW,306,2.0,3.0,87,0.00,,,0.00,Wunderground v.1.15,2013-09-02 17:25:00,
2013-09-02 18:35:00,62.2,58.3,30.37,NW,315,1.0,3.0,87,0.00,,,0.00,Wunderground v.1.15,2013-09-02 17:35:00,
2013-09-02 18:45:00,62.0,58.1,30.37,NNW,328,2.0,2.0,87,0.00,,,0.00,Wunderground v.1.15,2013-09-02 17:45:00,
2013-09-02 18:55:00,61.8,57.9,30.37,NW,313,2.0,5.0,87,0.00,,,0.00,Wunderground v.1.15,2013-09-02 17:55:00,
2013-09-02 19:00:00,61.7,57.8,30.37,NW,313,2.0,2.0,87,0.00,,,0.00,Wunderground v.1.15,2013-09-02 18:00:00,
2013-09-02 19:05:00,61.6,58.0,30.36,NW,315,1.0,2.0,88,0.00,,,0.00,Wunderground v.1.15,2013-09-02 18:05:00,
2013-09-02 19:15:00,61.3,57.7,30.36,NW,315,2.0,2.0,88,0.00,,,0.00,Wunderground v.1.15,2013-09-02 18:15:00,
2013-09-02 19:25:00,60.9,57.3,30.36,NW,318,2.0,2.0,88,0.00,,,0.00,Wunderground v.1.15,2013-09-02 18:25:00,
2013-09-02 19:35:00,60.7,57.1,30.36,NW,317,1.0,2.0,88,0.00,,,0.00,Wunderground v.1.15,2013-09-02 18:35:00,
2013-09-02 19:45:00,60.5,57.2,30.36,NNW,348,2.0,3.0,89,0.00,,,0.00,Wunderground v.1.15,2013-09-02 18:45:00,
2013-09-02 19:55:00,60.3,57.0,30.37,NNW,339,1.0,3.0,89,0.00,,,0.00,Wunderground v.1.15,2013-09-02 18:55:00,
2013-09-02 20:00:00,60.2,56.9,30.36,NNW,339,0.0,0.0,89,0.00,,,0.00,Wunderground v.1.15,2013-09-02 19:00:00,
2013-09-02 20:05:00,60.2,56.9,30.37,NNW,336,0.0,0.0,89,0.00,,,0.00,Wunderground v.1.15,2013-09-02 19:05:00,
2013-09-02 20:15:00,60.0,56.7,30.37,NNW,338,1.0,2.0,89,0.00,,,0.00,Wunderground v.1.15,2013-09-02 19:15:00,
2013-09-02 20:25:00,60.0,57.1,30.37,NW,322,2.0,3.0,90,0.00,,,0.00,Wunderground v.1.15,2013-09-02 19:25:00,
2013-09-02 20:35:00,59.8,56.9,30.37,NW,321,2.0,4.0,90,0.00,,,0.00,Wunderground v.1.15,2013-09-02 19:35:00,
2013-09-02 20:45:00,59.7,56.8,30.37,NW,321,2.0,3.0,90,0.00,,,0.00,Wunderground v.1.15,2013-09-02 19:45:00,
2013-09-02 20:50:00,59.8,57.2,30.38,NW,321,1.0,3.0,91,0.00,,,0.00,Wunderground v.1.15,2013-09-02 19:50:00,
2013-09-02 21:00:00,59.7,57.1,30.37,NW,321,2.0,4.0,91,0.00,,,0.00,Wunderground v.1.15,2013-09-02 20:00:00,
2013-09-02 21:10:00,59.7,57.1,30.37,NW,321,1.0,2.0,91,0.00,,,0.00,Wunderground v.1.15,2013-09-02 20:10:00,
2013-09-02 21:15:00,59.6,57.0,30.37,NW,321,1.0,2.0,91,0.00,,,0.00,Wunderground v.1.15,2013-09-02 20:15:00,
2013-09-02 21:25:00,59.6,57.0,30.38,NW,321,0.0,1.0,91,0.00,,,0.00,Wunderground v.1.15,2013-09-02 20:25:00,
2013-09-02 21:35:00,59.6,57.3,30.38,NW,321,1.0,1.0,92,0.00,,,0.00,Wunderground v.1.15,2013-09-02 20:35:00,
2013-09-02 21:45:00,59.7,57.4,30.38,NW,319,2.0,5.0,92,0.00,,,0.00,Wunderground v.1.15,2013-09-02 20:45:00,
2013-09-02 21:50:00,59.6,57.3,30.38,NW,319,2.0,2.0,92,0.00,,,0.00,Wunderground v.1.15,2013-09-02 20:50:00,
2013-09-02 21:55:00,59.6,57.3,30.38,NW,319,2.0,4.0,92,0.00,,,0.00,Wunderground v.1.15,2013-09-02 20:55:00,
2013-09-02 22:05:00,59.6,57.3,30.38,NW,319,2.0,2.0,92,0.00,,,0.00,Wunderground v.1.15,2013-09-02 21:05:00,
2013-09-02 22:15:00,59.6,57.3,30.38,NW,319,0.0,1.0,92,0.00,,,0.00,Wunderground v.1.15,2013-09-02 21:15:00,
2013-09-02 22:20:00,59.6,57.3,30.38,NW,319,0.0,0.0,92,0.00,,,0.00,Wunderground v.1.15,2013-09-02 21:20:00,
2013-09-02 22:30:00,59.5,57.2,30.38,NW,323,1.0,1.0,92,0.00,,,0.00,Wunderground v.1.15,2013-09-02 21:30:00,
2013-09-02 22:35:00,59.5,57.2,30.38,NW,324,2.0,2.0,92,0.00,,,0.00,Wunderground v.1.15,2013-09-02 21:35:00,
2013-09-02 22:45:00,59.5,57.2,30.37,NW,324,1.0,2.0,92,0.00,,,0.00,Wunderground v.1.15,2013-09-02 21:45:00,
2013-09-02 22:55:00,59.5,57.2,30.37,NW,324,0.0,0.0,92,0.00,,,0.00,Wunderground v.1.15,2013-09-02 21:55:00,
2013-09-02 23:05:00,59.5,57.2,30.37,NW,324,1.0,2.0,92,0.00,,,0.00,Wunderground v.1.15,2013-09-02 22:05:00,
2013-09-02 23:15:00,59.5,57.2,30.37,NW,324,1.0,1.0,92,0.00,,,0.00,Wunderground v.1.15,2013-09-02 22:15:00,
2013-09-02 23:25:00,59.6,57.6,30.37,NW,324,1.0,2.0,93,0.00,,,0.00,Wunderground v.1.15,2013-09-02 22:25:00,
2013-09-02 23:35:00,59.6,57.6,30.37,NW,324,1.0,1.0,93,0.00,,,0.00,Wunderground v.1.15,2013-09-02 22:35:00,
2013-09-02 23:45:00,59.6,57.6,30.36,NW,324,0.0,0.0,93,0.00,,,0.00,Wunderground v.1.15,2013-09-02 22:45:00,
2013-09-02 23:55:00,59.6,57.6,30.36,NW,324,0.0,2.0,93,0.00,,,0.00,Wunderground v.1.15,2013-09-02 22:55:00,